createdAt,value
2018-12-25T00:01:33.010Z,5.13
2018-12-25T00:03:52.553Z,5.09
2018-12-25T00:06:12.150Z,5.12
2018-12-25T00:08:31.520Z,4.93
2018-12-25T00:10:50.976Z,5.18
2018-12-25T00:13:10.334Z,5.18
2018-12-25T00:15:29.848Z,5.12
2018-12-25T00:17:51.732Z,4.96
2018-12-25T00:20:12.467Z,4.99
2018-12-25T00:22:32.160Z,4.93
2018-12-25T00:24:55.549Z,4.89
2018-12-25T00:27:14.689Z,4.85
2018-12-25T00:29:34.324Z,4.84
2018-12-25T00:31:53.689Z,4.76
2018-12-25T00:34:12.850Z,4.84
2018-12-25T00:36:32.138Z,4.79
2018-12-25T00:38:52.215Z,4.68
2018-12-25T00:41:11.920Z,4.71
2018-12-25T00:43:32.086Z,4.64
2018-12-25T00:45:51.723Z,4.56
2018-12-25T00:48:11.639Z,4.49
2018-12-25T00:50:31.632Z,4.52
2018-12-25T00:52:51.057Z,4.52
2018-12-25T00:55:38.536Z,4.57
2018-12-25T00:57:55.607Z,4.52
2018-12-25T01:00:14.814Z,4.60
2018-12-25T01:02:34.196Z,4.63
2018-12-25T01:04:53.761Z,4.68
2018-12-25T01:07:13.421Z,4.67
2018-12-25T01:09:33.068Z,4.67
2018-12-25T01:11:52.356Z,4.66
2018-12-25T01:14:11.708Z,4.60
2018-12-25T01:18:49.643Z,4.54
2018-12-25T01:21:11.646Z,4.55
2018-12-25T01:23:31.531Z,4.59
2018-12-25T01:25:51.258Z,4.63
2018-12-25T01:28:09.368Z,4.66
2018-12-25T01:30:29.087Z,4.70
2018-12-25T01:32:48.660Z,4.74
2018-12-25T01:35:07.927Z,4.69
2018-12-25T01:37:27.588Z,4.76
2018-12-25T01:39:47.092Z,4.68
2018-12-25T01:42:06.601Z,4.63
2018-12-25T01:44:25.970Z,4.58
2018-12-25T01:46:45.354Z,4.52
2018-12-25T01:49:04.588Z,4.46
2018-12-25T01:51:12.457Z,4.39
2018-12-25T01:53:29.707Z,4.41
2018-12-25T01:55:48.547Z,4.39
2018-12-25T01:58:08.133Z,4.19
2018-12-25T02:00:27.354Z,4.31
2018-12-25T02:02:46.853Z,4.27
2018-12-25T02:05:06.410Z,4.25
2018-12-25T02:07:26.183Z,4.28
2018-12-25T02:09:45.953Z,4.30
2018-12-25T02:12:05.186Z,4.20
2018-12-25T02:14:24.954Z,4.25
2018-12-25T02:16:44.559Z,4.35
2018-12-25T02:19:04.181Z,4.36
2018-12-25T02:21:22.262Z,4.37
2018-12-25T02:23:41.751Z,4.34
2018-12-25T02:26:01.096Z,4.31
2018-12-25T02:28:20.201Z,4.26
2018-12-25T02:30:27.966Z,4.26
2018-12-25T02:32:47.503Z,4.26
2018-12-25T02:35:07.309Z,4.12
2018-12-25T02:37:26.337Z,4.24
2018-12-25T02:39:46.103Z,4.11
2018-12-25T02:42:05.180Z,4.09
2018-12-25T02:44:25.027Z,4.02
2018-12-25T02:46:44.920Z,3.98
2018-12-25T02:49:03.983Z,3.95
2018-12-25T02:51:23.841Z,3.93
2018-12-25T02:53:42.794Z,3.92
2018-12-25T02:56:21.431Z,3.88
2018-12-25T02:58:42.551Z,3.84
2018-12-25T03:01:02.415Z,3.78
2018-12-25T03:03:21.934Z,3.76
2018-12-25T03:05:41.459Z,3.62
2018-12-25T03:08:01.621Z,3.71
2018-12-25T03:10:21.548Z,3.70
2018-12-25T03:12:40.731Z,3.72
2018-12-25T03:15:00.533Z,3.72
2018-12-25T03:17:19.857Z,3.57
2018-12-25T03:19:39.104Z,3.67
2018-12-25T03:21:58.513Z,3.68
2018-12-25T03:24:17.892Z,3.66
2018-12-25T03:26:37.114Z,3.59
2018-12-25T03:28:56.608Z,3.63
2018-12-25T03:31:16.394Z,3.65
2018-12-25T03:33:36.697Z,3.70
2018-12-25T03:35:56.472Z,3.74
2018-12-25T03:38:15.812Z,3.73
2018-12-25T03:40:35.331Z,3.67
2018-12-25T03:42:54.990Z,3.62
2018-12-25T03:45:14.147Z,3.57
2018-12-25T03:47:33.618Z,3.54
2018-12-25T03:49:53.053Z,3.55
2018-12-25T03:52:12.454Z,3.53
2018-12-25T03:54:32.184Z,3.55
2018-12-25T03:56:51.490Z,3.58
2018-12-25T03:59:10.751Z,3.58
2018-12-25T04:01:30.197Z,3.53
2018-12-25T04:03:48.171Z,3.47
2018-12-25T04:06:07.943Z,3.40
2018-12-25T04:08:26.900Z,3.40
2018-12-25T04:10:46.375Z,3.43
2018-12-25T04:13:05.807Z,3.42
2018-12-25T04:15:25.004Z,3.40
2018-12-25T04:17:44.824Z,3.39
2018-12-25T04:20:04.471Z,3.41
2018-12-25T04:22:24.326Z,3.45
2018-12-25T04:24:43.996Z,3.47
2018-12-25T04:27:03.922Z,3.44
2018-12-25T04:29:23.074Z,3.51
2018-12-25T04:31:42.450Z,3.54
2018-12-25T04:34:01.881Z,3.56
2018-12-25T04:36:20.961Z,3.58
2018-12-25T04:38:40.426Z,3.54
2018-12-25T04:41:00.374Z,3.46
2018-12-25T04:43:20.423Z,3.54
2018-12-25T04:45:39.991Z,3.54
2018-12-25T04:47:59.638Z,3.50
2018-12-25T04:50:19.274Z,3.46
2018-12-25T04:52:38.611Z,3.27
2018-12-25T04:54:58.130Z,3.35
2018-12-25T04:57:17.095Z,3.30
2018-12-25T04:59:36.188Z,3.24
2018-12-25T05:01:55.301Z,3.19
2018-12-25T05:04:14.890Z,3.16
2018-12-25T05:06:34.304Z,3.14
2018-12-25T05:08:53.763Z,2.97
2018-12-25T05:11:11.703Z,3.10
2018-12-25T05:13:30.852Z,3.04
2018-12-25T05:15:48.729Z,3.03
2018-12-25T05:18:08.307Z,3.00
2018-12-25T05:20:26.260Z,3.01
2018-12-25T05:22:45.661Z,3.03
2018-12-25T05:24:53.708Z,3.04
2018-12-25T05:27:13.094Z,3.04
2018-12-25T05:29:32.619Z,3.06
2018-12-25T05:31:51.619Z,3.09
2018-12-25T05:34:11.719Z,3.10
2018-12-25T05:36:30.973Z,3.07
2018-12-25T05:38:50.667Z,3.04
2018-12-25T05:41:10.054Z,3.02
2018-12-25T05:43:29.518Z,2.98
2018-12-25T05:45:49.075Z,2.94
2018-12-25T05:48:08.522Z,2.94
2018-12-25T05:50:28.683Z,2.80
2018-12-25T05:52:48.262Z,2.95
2018-12-25T05:55:07.150Z,2.94
2018-12-25T05:57:26.130Z,2.91
2018-12-25T05:59:45.107Z,2.88
2018-12-25T06:02:05.048Z,2.84
2018-12-25T06:04:24.540Z,2.79
2018-12-25T06:06:43.972Z,2.76
2018-12-25T06:09:04.385Z,2.73
2018-12-25T06:11:23.826Z,2.69
2018-12-25T06:13:41.828Z,2.67
2018-12-25T06:16:01.198Z,2.71
2018-12-25T06:18:20.231Z,2.57
2018-12-25T06:20:39.874Z,2.82
2018-12-25T06:22:59.581Z,2.61
2018-12-25T06:25:18.854Z,2.82
2018-12-25T06:27:38.491Z,2.80
2018-12-25T06:29:56.308Z,2.66
2018-12-25T06:32:16.264Z,2.80
2018-12-25T06:34:35.667Z,2.78
2018-12-25T06:36:55.270Z,2.75
2018-12-25T06:39:14.896Z,2.70
2018-12-25T06:41:34.475Z,2.51
2018-12-25T06:43:54.223Z,2.61
2018-12-25T06:46:13.483Z,2.55
2018-12-25T06:48:32.682Z,2.56
2018-12-25T06:50:52.179Z,2.55
2018-12-25T06:53:11.544Z,2.55
2018-12-25T06:55:31.081Z,2.58
2018-12-25T06:57:50.337Z,2.57
2018-12-25T07:00:08.347Z,2.58
2018-12-25T07:02:28.215Z,2.60
2018-12-25T07:04:47.360Z,2.54
2018-12-25T07:07:06.663Z,2.68
2018-12-25T07:09:25.673Z,2.72
2018-12-25T07:11:45.088Z,2.74
2018-12-25T07:14:04.434Z,2.75
2018-12-25T07:16:23.905Z,2.71
2018-12-25T07:18:43.162Z,2.69
2018-12-25T07:21:02.280Z,2.66
2018-12-25T07:23:21.966Z,2.62
2018-12-25T07:25:41.227Z,2.57
2018-12-25T07:28:00.563Z,2.53
2018-12-25T07:30:19.627Z,2.46
2018-12-25T07:32:38.985Z,2.42
2018-12-25T07:34:58.679Z,2.37
2018-12-25T07:37:17.827Z,2.38
2018-12-25T07:39:37.398Z,2.42
2018-12-25T07:41:56.611Z,2.46
2018-12-25T07:44:16.083Z,2.55
2018-12-25T07:46:35.868Z,2.51
2018-12-25T07:48:55.602Z,2.58
2018-12-25T07:51:20.650Z,2.56
2018-12-25T07:53:35.834Z,2.52
2018-12-25T07:55:55.100Z,2.55
2018-12-25T07:58:14.940Z,2.50
2018-12-25T08:00:34.157Z,2.64
2018-12-25T08:02:56.018Z,2.65
2018-12-25T08:05:14.659Z,2.64
2018-12-25T08:07:33.889Z,2.66
2018-12-25T08:09:57.355Z,2.69
2018-12-25T08:12:17.108Z,2.72
2018-12-25T08:14:36.643Z,2.76
2018-12-25T08:16:55.978Z,2.79
2018-12-25T08:19:16.559Z,2.83
2018-12-25T08:21:35.839Z,2.86
2018-12-25T08:23:55.815Z,2.89
2018-12-25T08:26:15.245Z,2.91
2018-12-25T08:28:35.228Z,2.96
2018-12-25T08:30:55.817Z,3.01
2018-12-25T08:33:15.649Z,3.01
2018-12-25T08:35:34.591Z,3.04
2018-12-25T08:37:53.952Z,2.98
2018-12-25T08:40:13.393Z,3.05
2018-12-25T08:42:33.135Z,3.06
2018-12-25T08:44:52.564Z,3.08
2018-12-25T08:47:12.261Z,3.07
2018-12-25T08:49:32.109Z,3.08
2018-12-25T08:51:52.182Z,3.10
2018-12-25T08:54:11.951Z,3.12
2018-12-25T08:56:31.165Z,3.14
2018-12-25T08:58:50.125Z,3.15
2018-12-25T09:01:09.639Z,3.18
2018-12-25T09:03:28.721Z,3.18
2018-12-25T09:05:48.197Z,3.19
2018-12-25T09:08:07.921Z,3.17
2018-12-25T09:10:27.585Z,3.20
2018-12-25T09:12:46.748Z,3.21
2018-12-25T09:15:06.272Z,3.08
2018-12-25T09:17:25.563Z,3.24
2018-12-25T09:19:44.676Z,3.27
2018-12-25T09:22:04.300Z,3.22
2018-12-25T09:24:23.982Z,3.36
2018-12-25T09:26:44.238Z,3.45
2018-12-25T09:29:03.721Z,3.56
2018-12-25T09:31:24.028Z,3.65
2018-12-25T09:33:43.657Z,3.72
2018-12-25T09:36:03.439Z,3.82
2018-12-25T09:38:23.338Z,3.92
2018-12-25T09:40:43.050Z,4.01
2018-12-25T09:43:02.564Z,4.10
2018-12-25T09:45:21.936Z,4.18
2018-12-25T09:47:41.281Z,4.24
2018-12-25T09:50:00.752Z,4.31
2018-12-25T09:52:20.278Z,4.38
2018-12-25T09:54:39.901Z,4.43
2018-12-25T09:56:59.061Z,4.47
2018-12-25T09:59:18.270Z,4.51
2018-12-25T10:01:37.981Z,4.55
2018-12-25T10:03:57.543Z,4.59
2018-12-25T10:06:17.014Z,4.53
2018-12-25T10:08:36.863Z,4.61
2018-12-25T10:10:56.792Z,4.80
2018-12-25T10:13:16.529Z,4.89
2018-12-25T10:15:36.193Z,4.96
2018-12-25T10:17:55.523Z,5.03
2018-12-25T10:20:15.552Z,5.07
2018-12-25T10:22:33.576Z,5.07
2018-12-25T10:24:52.718Z,5.08
2018-12-25T10:27:12.228Z,5.13
2018-12-25T10:29:35.376Z,5.16
2018-12-25T10:32:07.725Z,5.22
2018-12-25T10:34:27.100Z,5.24
2018-12-25T10:36:46.601Z,5.29
2018-12-25T10:39:30.785Z,5.33
2018-12-25T10:41:29.541Z,5.37
2018-12-25T10:43:48.880Z,5.43
2018-12-25T10:46:08.357Z,5.49
2018-12-25T10:48:26.688Z,5.54
2018-12-25T10:50:46.555Z,5.59
2018-12-25T10:53:04.904Z,5.67
2018-12-25T10:55:24.033Z,5.72
2018-12-25T10:57:43.125Z,5.79
2018-12-25T11:00:02.436Z,5.63
2018-12-25T11:02:21.900Z,5.91
2018-12-25T11:04:41.811Z,5.97
2018-12-25T11:07:01.384Z,6.03
2018-12-25T11:09:21.097Z,6.07
2018-12-25T11:11:40.531Z,6.14
2018-12-25T11:14:00.208Z,6.19
2018-12-25T11:16:19.899Z,6.10
2018-12-25T11:18:39.212Z,6.29
2018-12-25T11:20:58.796Z,6.31
2018-12-25T11:23:18.105Z,6.36
2018-12-25T11:25:38.288Z,6.31
2018-12-25T11:27:58.163Z,6.46
2018-12-25T11:30:17.545Z,6.51
2018-12-25T11:32:36.742Z,6.57
2018-12-25T11:34:56.074Z,6.59
2018-12-25T11:37:15.717Z,6.64
2018-12-25T11:39:35.272Z,6.68
2018-12-25T11:41:54.491Z,6.65
2018-12-25T11:44:13.903Z,6.75
2018-12-25T11:46:32.914Z,6.80
2018-12-25T11:48:52.851Z,6.85
2018-12-25T11:51:13.677Z,6.90
2018-12-25T11:53:33.224Z,6.96
2018-12-25T11:55:52.453Z,6.98
2018-12-25T11:58:12.182Z,7.02
2018-12-25T12:00:32.199Z,6.96
2018-12-25T12:02:52.626Z,7.10
2018-12-25T12:05:12.271Z,7.13
2018-12-25T12:07:31.740Z,7.15
2018-12-25T12:09:51.160Z,7.19
2018-12-25T12:12:11.095Z,7.21
2018-12-25T12:14:30.504Z,7.23
2018-12-25T12:16:50.201Z,7.28
2018-12-25T12:19:09.861Z,7.30
2018-12-25T12:21:29.853Z,7.32
2018-12-25T12:23:50.055Z,7.34
2018-12-25T12:26:10.014Z,7.37
2018-12-25T12:28:29.682Z,7.41
2018-12-25T12:30:49.559Z,7.44
2018-12-25T12:33:08.871Z,7.47
2018-12-25T12:35:28.882Z,7.52
2018-12-25T12:37:48.656Z,7.34
2018-12-25T12:40:08.731Z,7.58
2018-12-25T12:42:28.270Z,7.60
2018-12-25T12:44:50.321Z,7.62
2018-12-25T12:47:09.658Z,7.63
2018-12-25T12:49:28.731Z,7.63
2018-12-25T12:51:50.731Z,7.62
2018-12-25T12:54:10.740Z,7.58
2018-12-25T12:56:30.544Z,7.66
2018-12-25T12:58:49.748Z,7.68
2018-12-25T13:01:09.393Z,7.71
2018-12-25T13:03:29.077Z,7.57
2018-12-25T13:05:48.471Z,7.73
2018-12-25T13:08:08.831Z,7.76
2018-12-25T13:10:27.934Z,7.78
2018-12-25T13:12:47.441Z,7.80
2018-12-25T13:15:06.790Z,7.81
2018-12-25T13:17:26.427Z,7.84
2018-12-25T13:19:46.842Z,7.64
2018-12-25T13:22:07.777Z,7.88
2018-12-25T13:24:29.625Z,7.89
2018-12-25T13:26:49.030Z,7.87
2018-12-25T13:29:09.092Z,7.89
2018-12-25T13:31:29.058Z,7.89
2018-12-25T13:33:48.499Z,7.88
2018-12-25T13:36:07.945Z,7.82
2018-12-25T13:38:27.502Z,7.78
2018-12-25T13:40:45.533Z,7.93
2018-12-25T13:43:09.054Z,7.93
2018-12-25T13:45:28.692Z,7.95
2018-12-25T13:47:47.872Z,7.96
2018-12-25T13:50:08.495Z,7.77
2018-12-25T13:52:28.328Z,7.97
2018-12-25T13:54:47.372Z,7.95
2018-12-25T13:57:07.018Z,7.96
2018-12-25T13:59:26.805Z,7.96
2018-12-25T14:01:46.254Z,7.97
2018-12-25T14:04:05.683Z,7.95
2018-12-25T14:06:25.480Z,7.97
2018-12-25T14:08:45.059Z,7.98
2018-12-25T14:11:04.361Z,7.98
2018-12-25T14:13:23.430Z,7.98
2018-12-25T14:15:42.682Z,7.97
2018-12-25T14:18:01.803Z,7.95
2018-12-25T14:20:21.852Z,7.96
2018-12-25T14:22:41.393Z,7.96
2018-12-25T14:24:59.378Z,7.95
2018-12-25T14:27:19.116Z,7.94
2018-12-25T14:29:38.969Z,7.95
2018-12-25T14:31:57.087Z,7.92
2018-12-25T14:34:16.687Z,7.83
2018-12-25T14:36:36.125Z,7.93
2018-12-25T14:38:56.057Z,7.93
2018-12-25T14:41:15.674Z,7.92
2018-12-25T14:43:35.489Z,7.93
2018-12-25T14:45:55.166Z,7.89
2018-12-25T14:48:14.916Z,7.89
2018-12-25T14:50:34.354Z,7.87
2018-12-25T14:52:54.365Z,7.86
2018-12-25T14:55:14.282Z,7.83
2018-12-25T14:57:34.077Z,7.81
2018-12-25T14:59:51.984Z,7.79
2018-12-25T15:02:11.451Z,7.79
2018-12-25T15:04:30.621Z,7.68
2018-12-25T15:06:48.596Z,7.74
2018-12-25T15:09:07.698Z,7.66
2018-12-25T15:11:27.319Z,7.71
2018-12-25T15:13:46.905Z,7.69
2018-12-25T15:16:06.465Z,7.68
2018-12-25T15:18:26.023Z,7.65
2018-12-25T15:20:45.122Z,7.64
2018-12-25T15:23:04.313Z,7.62
2018-12-25T15:25:23.623Z,7.59
2018-12-25T15:27:42.857Z,7.56
2018-12-25T15:30:01.855Z,7.53
2018-12-25T15:32:21.394Z,7.48
2018-12-25T15:34:42.135Z,7.44
2018-12-25T15:37:02.797Z,7.37
2018-12-25T15:39:22.486Z,7.23
2018-12-25T15:41:41.864Z,7.28
2018-12-25T15:44:01.102Z,7.24
2018-12-25T15:46:20.671Z,7.18
2018-12-25T15:48:39.875Z,7.10
2018-12-25T15:50:59.065Z,7.05
2018-12-25T15:53:19.675Z,7.02
2018-12-25T15:55:39.301Z,6.98
2018-12-25T15:57:59.206Z,6.89
2018-12-25T16:00:19.564Z,6.85
2018-12-25T16:02:38.757Z,6.81
2018-12-25T16:04:58.389Z,6.74
2018-12-25T16:07:17.426Z,6.69
2018-12-25T16:09:36.875Z,6.67
2018-12-25T16:11:56.727Z,6.62
2018-12-25T16:14:16.104Z,6.60
2018-12-25T16:16:35.246Z,6.60
2018-12-25T16:18:55.124Z,6.61
2018-12-25T16:21:15.096Z,6.63
2018-12-25T16:23:35.629Z,6.63
2018-12-25T16:25:55.610Z,6.62
2018-12-25T16:28:13.754Z,6.62
2018-12-25T16:30:33.154Z,6.62
2018-12-25T16:32:52.778Z,6.59
2018-12-25T16:35:11.045Z,6.54
2018-12-25T16:37:30.430Z,6.46
2018-12-25T16:39:50.036Z,6.39
2018-12-25T16:42:09.458Z,6.33
2018-12-25T16:44:29.078Z,6.30
2018-12-25T16:46:48.569Z,6.27
2018-12-25T16:49:08.453Z,6.22
2018-12-25T16:51:28.680Z,6.19
2018-12-25T16:53:53.510Z,6.01
2018-12-25T16:56:08.854Z,6.14
2018-12-25T16:58:28.518Z,6.15
2018-12-25T17:00:48.322Z,6.07
2018-12-25T17:03:07.751Z,6.16
2018-12-25T17:07:47.059Z,6.07
2018-12-25T17:10:34.398Z,5.99
2018-12-25T17:12:53.610Z,5.92
2018-12-25T17:15:13.354Z,5.84
2018-12-25T17:17:32.805Z,5.79
2018-12-25T17:19:50.904Z,5.77
2018-12-25T17:22:10.190Z,5.73
2018-12-25T17:24:30.019Z,5.71
2018-12-25T17:26:48.232Z,5.69
2018-12-25T17:29:07.470Z,5.67
2018-12-25T17:31:27.238Z,5.66
2018-12-25T17:33:35.099Z,5.53
2018-12-25T17:35:54.879Z,5.60
2018-12-25T17:38:14.364Z,5.54
2018-12-25T17:40:34.075Z,5.49
2018-12-25T17:42:53.902Z,5.33
2018-12-25T17:45:13.337Z,5.47
2018-12-25T17:47:32.934Z,5.44
2018-12-25T17:49:52.819Z,5.43
2018-12-25T17:52:12.714Z,5.41
2018-12-25T17:54:31.783Z,5.43
2018-12-25T17:56:51.514Z,5.46
2018-12-25T17:59:10.660Z,5.41
2018-12-25T18:01:30.643Z,5.53
2018-12-25T18:03:51.418Z,5.42
2018-12-25T18:06:11.822Z,5.59
2018-12-25T18:08:19.616Z,5.60
2018-12-25T18:10:39.106Z,5.61
2018-12-25T18:12:58.271Z,5.61
2018-12-25T18:15:17.719Z,5.42
2018-12-25T18:17:25.501Z,5.51
2018-12-25T18:19:44.994Z,5.39
2018-12-25T18:22:04.522Z,5.21
2018-12-25T18:24:24.727Z,5.18
2018-12-25T18:26:44.400Z,5.09
2018-12-25T18:29:04.354Z,5.03
2018-12-25T18:31:23.685Z,5.01
2018-12-25T18:33:43.155Z,5.08
2018-12-25T18:36:02.644Z,5.09
2018-12-25T18:38:22.192Z,5.01
2018-12-25T18:40:41.255Z,5.09
2018-12-25T18:43:00.568Z,4.93
2018-12-25T18:45:20.940Z,4.90
2018-12-25T18:47:40.936Z,5.04
2018-12-25T18:50:00.210Z,5.06
2018-12-25T18:52:20.395Z,5.07
2018-12-25T18:54:39.810Z,5.09
2018-12-25T18:56:59.459Z,5.00
2018-12-25T18:59:19.877Z,5.09
2018-12-25T19:01:39.419Z,5.09
2018-12-25T19:03:58.516Z,5.07
2018-12-25T19:06:18.148Z,5.02
2018-12-25T19:08:37.753Z,4.79
2018-12-25T19:10:57.232Z,4.85
2018-12-25T19:13:16.490Z,4.75
2018-12-25T19:15:36.590Z,4.65
2018-12-25T19:17:56.947Z,4.62
2018-12-25T19:20:16.056Z,4.62
2018-12-25T19:22:35.524Z,4.61
2018-12-25T19:24:55.315Z,4.57
2018-12-25T19:27:14.486Z,4.55
2018-12-25T19:29:33.875Z,4.52
2018-12-25T19:31:53.644Z,4.50
2018-12-25T19:34:12.791Z,4.47
2018-12-25T19:36:32.517Z,4.41
2018-12-25T19:38:51.636Z,4.10
2018-12-25T19:41:11.155Z,4.11
2018-12-25T19:43:31.098Z,4.10
2018-12-25T19:46:07.047Z,3.93
2018-12-25T19:48:28.661Z,4.04
2018-12-25T19:51:08.595Z,4.07
2018-12-25T19:53:19.016Z,4.12
2018-12-25T19:55:30.580Z,4.15
2018-12-25T19:58:21.505Z,4.20
2018-12-25T20:00:40.802Z,4.25
2018-12-25T20:03:07.829Z,4.29
2018-12-25T20:08:59.888Z,4.31
2018-12-25T20:11:41.083Z,4.32
2018-12-25T20:17:17.503Z,4.34
2018-12-25T20:23:10.166Z,4.34
2018-12-25T20:26:40.933Z,4.38
2018-12-25T20:29:22.154Z,4.39
2018-12-25T20:32:01.172Z,4.23
2018-12-25T20:34:59.135Z,4.34
2018-12-25T20:37:52.518Z,4.41
2018-12-25T20:41:11.534Z,4.38
2018-12-25T20:44:21.321Z,4.36
2018-12-25T20:53:19.461Z,4.35
2018-12-25T21:08:32.338Z,4.35
2018-12-25T21:14:19.439Z,4.26
2018-12-25T21:17:33.973Z,4.19
2018-12-25T21:20:12.852Z,4.24
2018-12-25T21:22:58.019Z,4.21
2018-12-25T21:25:54.917Z,4.16
2018-12-25T21:28:21.079Z,3.90
2018-12-25T21:30:58.879Z,4.04
2018-12-25T21:33:27.467Z,3.97
2018-12-25T21:36:00.244Z,3.92
2018-12-25T21:38:21.423Z,3.94
2018-12-25T21:40:48.328Z,3.96
2018-12-25T21:43:19.433Z,3.99
2018-12-25T21:45:39.728Z,4.03
2018-12-25T21:47:59.381Z,4.03
2018-12-25T21:50:20.793Z,4.00
2018-12-25T21:52:41.980Z,3.78
2018-12-25T21:55:02.266Z,3.89
2018-12-25T21:57:42.032Z,3.67
2018-12-25T21:59:57.877Z,3.71
2018-12-25T22:02:17.524Z,3.61
2018-12-25T22:04:40.457Z,3.54
2018-12-25T22:07:08.806Z,3.40
2018-12-25T22:09:28.272Z,3.55
2018-12-25T22:11:47.930Z,3.59
2018-12-25T22:14:08.611Z,3.62
2018-12-25T22:16:28.422Z,3.61
2018-12-25T22:18:48.052Z,3.60
2018-12-25T22:21:08.417Z,3.44
2018-12-25T22:23:31.134Z,3.61
2018-12-25T22:26:11.309Z,3.61
2018-12-25T22:28:31.216Z,3.65
2018-12-25T22:30:51.166Z,3.68
2018-12-25T22:33:11.929Z,3.73
2018-12-25T22:35:33.086Z,3.78
2018-12-25T22:37:52.803Z,3.84
2018-12-25T22:40:13.953Z,3.88
2018-12-25T22:42:33.557Z,3.90
2018-12-25T22:44:54.175Z,3.89
2018-12-25T22:47:13.401Z,3.89
2018-12-25T22:52:17.944Z,3.90
2018-12-25T22:54:37.215Z,3.88
2018-12-25T22:56:58.665Z,3.73
2018-12-25T22:59:19.180Z,3.78
2018-12-25T23:02:08.056Z,3.86
2018-12-25T23:04:29.324Z,3.84
2018-12-25T23:06:51.176Z,3.82
2018-12-25T23:09:14.346Z,3.79
2018-12-25T23:11:35.652Z,3.63
2018-12-25T23:13:59.102Z,3.70
2018-12-25T23:16:35.035Z,3.66
2018-12-25T23:21:37.695Z,3.59
2018-12-25T23:23:58.384Z,3.64
2018-12-25T23:26:18.860Z,3.70
2018-12-25T23:28:37.945Z,3.73
2018-12-25T23:30:58.745Z,3.78
2018-12-25T23:33:46.275Z,3.84
2018-12-25T23:36:07.624Z,3.89
2018-12-25T23:38:27.997Z,3.94
2018-12-25T23:40:50.074Z,3.97
2018-12-25T23:43:16.654Z,3.99
2018-12-25T23:45:49.704Z,4.05
2018-12-25T23:48:09.183Z,4.06
2018-12-25T23:50:29.230Z,4.02
2018-12-25T23:52:49.634Z,3.99
2018-12-25T23:55:08.911Z,3.95
2018-12-25T23:57:32.891Z,3.98
